createdAt,value
2018-09-11T00:00:42.938Z,83.10
2018-09-11T00:03:11.662Z,82.90
2018-09-11T00:05:41.782Z,83.70
2018-09-11T00:08:10.443Z,82.60
2018-09-11T00:10:39.397Z,82.80
2018-09-11T00:13:08.314Z,83.70
2018-09-11T00:15:37.200Z,84.40
2018-09-11T00:18:06.008Z,82.90
2018-09-11T00:20:34.829Z,82.60
2018-09-11T00:23:03.740Z,82.50
2018-09-11T00:25:32.684Z,82.70
2018-09-11T00:28:01.309Z,81.80
2018-09-11T00:30:30.252Z,82.00
2018-09-11T00:32:59.294Z,82.00
2018-09-11T00:35:27.842Z,83.20
2018-09-11T00:37:56.564Z,83.40
2018-09-11T00:40:25.490Z,81.80
2018-09-11T00:42:54.602Z,81.60
2018-09-11T00:45:23.624Z,82.30
2018-09-11T00:47:52.756Z,83.70
2018-09-11T00:50:21.335Z,82.70
2018-09-11T00:52:50.299Z,82.60
2018-09-11T00:55:19.411Z,83.00
2018-09-11T00:57:48.417Z,83.20
2018-09-11T01:00:17.344Z,82.70
2018-09-11T01:02:46.433Z,82.70
2018-09-11T01:05:14.867Z,83.40
2018-09-11T01:07:43.580Z,83.00
2018-09-11T01:10:12.542Z,82.90
2018-09-11T01:12:41.200Z,83.00
2018-09-11T01:15:10.242Z,82.80
2018-09-11T01:17:38.817Z,83.40
2018-09-11T01:20:08.191Z,82.90
2018-09-11T01:22:36.721Z,83.10
2018-09-11T01:25:05.521Z,82.80
2018-09-11T01:27:34.450Z,82.70
2018-09-11T01:30:03.501Z,82.30
2018-09-11T01:32:32.250Z,82.30
2018-09-11T01:35:00.896Z,82.70
2018-09-11T01:37:29.616Z,83.00
2018-09-11T01:39:58.468Z,83.20
2018-09-11T01:42:27.579Z,82.40
2018-09-11T01:44:56.600Z,83.60
2018-09-11T01:47:25.427Z,82.60
2018-09-11T01:49:54.304Z,83.10
2018-09-11T01:52:23.234Z,83.00
2018-09-11T01:54:52.204Z,82.90
2018-09-11T01:57:21.005Z,82.80
2018-09-11T01:59:50.012Z,82.70
2018-09-11T02:02:18.747Z,83.00
2018-09-11T02:04:47.397Z,83.20
2018-09-11T02:07:16.199Z,83.00
2018-09-11T02:09:45.148Z,82.50
2018-09-11T02:12:14.356Z,83.10
2018-09-11T02:14:44.484Z,83.00
2018-09-11T02:17:12.880Z,83.40
2018-09-11T02:19:41.813Z,84.20
2018-09-11T02:22:10.647Z,83.00
2018-09-11T02:24:39.569Z,83.40
2018-09-11T02:27:08.511Z,83.30
2018-09-11T02:29:37.530Z,83.50
2018-09-11T02:32:06.246Z,83.00
2018-09-11T02:34:35.179Z,83.20
2018-09-11T02:37:04.013Z,82.80
2018-09-11T02:39:32.767Z,83.80
2018-09-11T02:42:01.593Z,83.00
2018-09-11T02:44:30.400Z,84.20
2018-09-11T02:46:59.492Z,84.30
2018-09-11T02:49:27.893Z,83.70
2018-09-11T02:51:56.121Z,83.90
2018-09-11T02:54:25.208Z,83.60
2018-09-11T02:56:54.112Z,83.60
2018-09-11T02:59:23.080Z,83.40
2018-09-11T03:01:52.198Z,84.30
2018-09-11T03:04:20.751Z,84.60
2018-09-11T03:06:49.787Z,84.60
2018-09-11T03:09:19.177Z,84.40
2018-09-11T03:11:47.392Z,85.20
2018-09-11T03:14:16.416Z,85.10
2018-09-11T03:16:45.233Z,84.80
2018-09-11T03:19:14.044Z,84.30
2018-09-11T03:21:42.880Z,84.80
2018-09-11T03:24:11.584Z,85.00
2018-09-11T03:26:40.521Z,84.80
2018-09-11T03:29:09.181Z,85.40
2018-09-11T03:31:38.045Z,84.50
2018-09-11T03:34:07.263Z,84.70
2018-09-11T03:36:35.606Z,85.00
2018-09-11T03:39:06.337Z,85.60
2018-09-11T03:41:35.538Z,85.90
2018-09-11T03:44:04.566Z,86.00
2018-09-11T03:46:33.428Z,86.50
2018-09-11T03:49:02.247Z,86.20
2018-09-11T03:51:31.184Z,84.90
2018-09-11T03:53:59.828Z,85.70
2018-09-11T03:56:28.688Z,85.80
2018-09-11T03:58:57.529Z,86.10
2018-09-11T04:01:26.660Z,85.40
2018-09-11T04:03:55.686Z,85.50
2018-09-11T04:06:24.712Z,85.30
2018-09-11T04:08:53.416Z,85.40
2018-09-11T04:11:22.181Z,85.70
2018-09-11T04:13:51.093Z,86.50
2018-09-11T04:16:20.148Z,86.40
2018-09-11T04:18:48.895Z,86.00
2018-09-11T04:21:17.340Z,86.40
2018-09-11T04:30:44.472Z,86.60
2018-09-11T04:33:13.123Z,85.90
2018-09-11T04:35:41.913Z,87.20
2018-09-11T04:38:11.037Z,86.20
2018-09-11T04:40:39.456Z,87.10
2018-09-11T04:43:09.258Z,86.40
2018-09-11T04:45:38.120Z,86.20
2018-09-11T04:48:06.714Z,86.40
2018-09-11T04:50:35.509Z,87.20
2018-09-11T04:53:04.300Z,86.30
2018-09-11T04:55:33.134Z,86.40
2018-09-11T04:58:01.838Z,86.40
2018-09-11T05:00:30.664Z,86.40
2018-09-11T05:02:59.620Z,86.70
2018-09-11T05:05:29.169Z,87.50
2018-09-11T05:07:57.841Z,87.30
2018-09-11T05:10:26.550Z,86.70
2018-09-11T05:12:55.170Z,86.50
2018-09-11T05:15:23.714Z,86.70
2018-09-11T05:19:17.071Z,87.20
2018-09-11T05:21:45.212Z,87.20
2018-09-11T05:24:14.004Z,87.30
2018-09-11T05:26:42.867Z,86.90
2018-09-11T05:29:11.458Z,86.80
2018-09-11T05:31:40.448Z,87.30
2018-09-11T05:34:08.856Z,87.20
2018-09-11T05:36:40.243Z,87.10
2018-09-11T05:39:10.475Z,87.30
2018-09-11T05:41:39.515Z,86.70
2018-09-11T05:44:08.242Z,86.60
2018-09-11T05:46:36.975Z,86.90
2018-09-11T05:49:05.831Z,87.40
2018-09-11T05:51:34.566Z,86.90
2018-09-11T05:54:03.278Z,86.50
2018-09-11T05:56:32.040Z,86.50
2018-09-11T05:59:01.676Z,86.30
2018-09-11T06:01:30.418Z,86.50
2018-09-11T06:04:00.243Z,86.50
2018-09-11T06:06:28.542Z,86.10
2018-09-11T06:08:57.206Z,86.10
2018-09-11T06:11:26.027Z,86.00
2018-09-11T06:13:54.789Z,86.10
2018-09-11T06:16:23.628Z,85.80
2018-09-11T06:18:52.212Z,85.70
2018-09-11T06:21:21.036Z,85.80
2018-09-11T06:23:49.739Z,86.00
2018-09-11T06:26:19.642Z,85.00
2018-09-11T06:28:48.839Z,85.10
2018-09-11T06:31:17.964Z,84.80
2018-09-11T06:33:48.985Z,84.80
2018-09-11T06:36:18.418Z,84.70
2018-09-11T06:38:47.446Z,84.60
2018-09-11T06:41:16.262Z,84.20
2018-09-11T06:43:45.034Z,84.20
2018-09-11T06:46:13.688Z,84.20
2018-09-11T06:48:42.363Z,84.20
2018-09-11T06:51:10.972Z,84.30
2018-09-11T06:53:39.610Z,84.50
2018-09-11T06:56:08.453Z,84.10
2018-09-11T06:58:37.667Z,84.10
2018-09-11T07:01:06.140Z,83.70
2018-09-11T07:03:34.818Z,83.50
2018-09-11T07:06:03.728Z,83.70
2018-09-11T07:08:32.833Z,83.10
2018-09-11T07:11:01.233Z,83.40
2018-09-11T07:13:30.116Z,83.70
2018-09-11T07:15:58.760Z,83.80
2018-09-11T07:18:27.484Z,84.00
2018-09-11T07:20:56.139Z,84.10
2018-09-11T07:23:24.899Z,84.00
2018-09-11T07:25:53.555Z,84.00
2018-09-11T07:28:22.180Z,84.20
2018-09-11T07:30:51.104Z,84.50
2018-09-11T07:33:19.630Z,84.00
2018-09-11T07:35:49.401Z,84.00
2018-09-11T07:38:18.129Z,84.20
2018-09-11T07:40:48.065Z,84.00
2018-09-11T07:43:16.796Z,84.00
2018-09-11T07:45:45.455Z,84.20
2018-09-11T07:48:14.335Z,84.20
2018-09-11T07:50:43.759Z,84.00
2018-09-11T07:53:11.995Z,83.20
2018-09-11T07:55:40.706Z,82.90
2018-09-11T07:58:09.495Z,83.20
2018-09-11T08:00:38.136Z,83.20
2018-09-11T08:03:06.862Z,83.40
2018-09-11T08:05:36.459Z,82.60
2018-09-11T08:08:06.081Z,82.60
2018-09-11T08:10:34.700Z,82.40
2018-09-11T08:13:03.732Z,82.70
2018-09-11T08:15:33.244Z,82.50
2018-09-11T08:18:03.067Z,81.90
2018-09-11T08:20:31.909Z,81.10
2018-09-11T08:23:00.532Z,80.40
2018-09-11T08:25:29.168Z,80.30
2018-09-11T08:27:57.890Z,79.90
2018-09-11T08:30:29.479Z,80.50
2018-09-11T08:32:58.336Z,81.00
2018-09-11T08:35:27.277Z,80.60
2018-09-11T08:37:55.988Z,80.50
2018-09-11T08:40:25.324Z,80.30
2018-09-11T08:42:54.523Z,80.80
2018-09-11T08:45:23.049Z,81.10
2018-09-11T08:47:51.776Z,81.10
2018-09-11T08:50:20.601Z,81.50
2018-09-11T08:52:49.413Z,81.10
2018-09-11T08:55:18.269Z,81.30
2018-09-11T08:57:46.922Z,81.30
2018-09-11T09:00:18.645Z,81.50
2018-09-11T09:02:47.385Z,81.90
2018-09-11T09:05:16.213Z,81.90
2018-09-11T09:07:44.891Z,81.90
2018-09-11T09:10:13.591Z,81.50
2018-09-11T09:12:42.062Z,81.90
2018-09-11T09:15:10.592Z,82.20
2018-09-11T09:17:39.416Z,82.10
2018-09-11T09:20:08.309Z,82.30
2018-09-11T09:22:38.086Z,82.10
2018-09-11T09:25:07.616Z,82.40
2018-09-11T09:27:36.504Z,82.70
2018-09-11T09:30:05.497Z,82.60
2018-09-11T09:32:33.915Z,82.80
2018-09-11T09:35:02.572Z,82.50
2018-09-11T09:37:31.385Z,82.60
2018-09-11T09:40:01.046Z,82.40
2018-09-11T09:42:29.775Z,82.40
2018-09-11T09:44:58.842Z,82.50
2018-09-11T09:47:27.742Z,82.60
2018-09-11T09:49:56.368Z,82.90
2018-09-11T09:52:28.104Z,82.60
2018-09-11T09:54:56.725Z,82.60
2018-09-11T09:57:25.561Z,82.40
2018-09-11T09:59:56.504Z,82.20
2018-09-11T10:02:25.851Z,81.50
2018-09-11T10:04:55.141Z,81.80
2018-09-11T10:07:25.693Z,82.00
2018-09-11T10:09:57.248Z,81.80
2018-09-11T10:12:26.085Z,81.10
2018-09-11T10:14:54.616Z,80.90
2018-09-11T10:17:23.419Z,81.20
2018-09-11T10:19:52.158Z,80.80
2018-09-11T10:22:20.865Z,80.70
2018-09-11T10:24:49.428Z,80.30
2018-09-11T10:27:21.185Z,80.40
2018-09-11T10:29:51.138Z,79.60
2018-09-11T10:32:19.640Z,80.10
2018-09-11T10:34:49.689Z,79.80
2018-09-11T10:37:18.427Z,79.30
2018-09-11T10:39:47.088Z,79.90
2018-09-11T10:42:15.924Z,79.60
2018-09-11T10:44:45.542Z,79.80
2018-09-11T10:47:14.411Z,80.00
2018-09-11T10:49:43.427Z,79.80
2018-09-11T10:52:12.769Z,80.30
2018-09-11T10:54:42.884Z,80.60
2018-09-11T10:57:11.187Z,80.70
2018-09-11T10:59:39.826Z,81.00
2018-09-11T11:02:09.859Z,81.50
2018-09-11T11:04:38.209Z,81.30
2018-09-11T11:07:07.065Z,81.80
2018-09-11T11:09:36.001Z,81.40
2018-09-11T11:12:10.250Z,81.60
2018-09-11T11:14:39.325Z,81.60
2018-09-11T11:17:08.136Z,81.80
2018-09-11T11:19:37.069Z,82.00
2018-09-11T11:22:06.898Z,81.00
2018-09-11T11:24:35.626Z,81.50
2018-09-11T11:27:04.424Z,81.70
2018-09-11T11:29:33.020Z,81.70
2018-09-11T11:32:01.740Z,81.80
2018-09-11T11:34:30.679Z,82.00
2018-09-11T11:36:59.691Z,81.50
2018-09-11T11:39:28.208Z,81.60
2018-09-11T11:41:56.917Z,81.50
2018-09-11T11:44:26.564Z,81.40
2018-09-11T11:46:55.318Z,81.50
2018-09-11T11:49:24.037Z,81.60
2018-09-11T11:51:52.887Z,81.60
2018-09-11T11:54:21.825Z,81.90
2018-09-11T11:56:50.308Z,81.00
2018-09-11T11:59:19.094Z,81.50
2018-09-11T12:01:47.845Z,81.70
2018-09-11T12:04:16.692Z,81.60
2018-09-11T12:06:45.265Z,81.40
2018-09-11T12:09:14.397Z,81.50
2018-09-11T12:11:42.840Z,81.50
2018-09-11T12:14:11.465Z,81.10
2018-09-11T12:16:40.173Z,81.40
2018-09-11T12:19:08.888Z,80.60
2018-09-11T12:21:37.631Z,81.20
2018-09-11T12:24:06.278Z,81.10
2018-09-11T12:26:34.892Z,80.70
2018-09-11T12:29:03.606Z,81.20
2018-09-11T12:31:32.304Z,81.20
2018-09-11T12:34:01.193Z,80.80
2018-09-11T12:36:30.000Z,80.60
2018-09-11T12:38:58.924Z,80.70
2018-09-11T12:41:27.799Z,80.70
2018-09-11T12:43:59.418Z,80.70
2018-09-11T12:46:28.572Z,81.20
2018-09-11T12:48:56.960Z,81.20
2018-09-11T12:51:25.584Z,81.20
2018-09-11T12:53:55.076Z,81.90
2018-09-11T12:56:23.412Z,81.10
2018-09-11T12:58:52.072Z,81.20
2018-09-11T13:01:20.744Z,80.70
2018-09-11T13:03:49.456Z,80.60
2018-09-11T13:06:19.901Z,80.10
2018-09-11T13:08:48.308Z,80.10
2018-09-11T13:11:17.236Z,80.20
2018-09-11T13:13:45.900Z,80.40
2018-09-11T13:16:14.549Z,79.60
2018-09-11T13:18:43.369Z,79.40
2018-09-11T13:21:12.084Z,79.40
2018-09-11T13:23:41.641Z,79.70
2018-09-11T13:26:10.260Z,79.30
2018-09-11T13:28:40.424Z,78.80
2018-09-11T13:31:08.747Z,79.30
2018-09-11T13:33:37.530Z,77.80
2018-09-11T13:36:06.262Z,78.00
2018-09-11T13:38:34.874Z,77.30
2018-09-11T13:41:03.488Z,77.80
2018-09-11T13:44:56.887Z,77.80
2018-09-11T13:47:25.648Z,77.80
2018-09-11T13:49:54.601Z,77.70
2018-09-11T13:52:22.885Z,78.00
2018-09-11T13:54:51.608Z,79.10
2018-09-11T13:57:20.463Z,78.60
2018-09-11T13:59:49.468Z,78.30
2018-09-11T14:02:24.498Z,78.00
2018-09-11T14:04:52.601Z,78.70
2018-09-11T14:07:21.448Z,79.00
2018-09-11T14:09:50.009Z,77.40
2018-09-11T14:12:20.205Z,77.20
2018-09-11T14:14:48.617Z,78.20
2018-09-11T14:17:17.440Z,78.20
2018-09-11T14:19:46.158Z,78.60
2018-09-11T14:22:14.865Z,79.30
2018-09-11T14:24:43.929Z,78.80
2018-09-11T14:27:12.398Z,78.70
2018-09-11T14:29:41.293Z,78.70
2018-09-11T14:32:09.702Z,78.80
2018-09-11T14:34:38.515Z,79.20
2018-09-11T14:37:07.018Z,79.50
2018-09-11T14:39:35.591Z,79.50
2018-09-11T14:42:04.433Z,79.30
2018-09-11T14:44:33.292Z,79.50
2018-09-11T14:47:02.041Z,80.10
2018-09-11T14:49:32.235Z,80.30
2018-09-11T14:52:01.730Z,80.30
2018-09-11T14:54:30.542Z,80.30
2018-09-11T14:56:59.186Z,80.70
2018-09-11T14:59:28.007Z,81.10
2018-09-11T15:01:56.648Z,81.50
2018-09-11T15:04:25.266Z,81.20
2018-09-11T15:06:53.931Z,81.40
2018-09-11T15:09:22.710Z,81.50
2018-09-11T15:11:51.336Z,82.20
2018-09-11T15:14:20.374Z,82.00
2018-09-11T15:16:48.892Z,82.10
2018-09-11T15:19:17.826Z,82.30
2018-09-11T15:21:46.572Z,82.40
2018-09-11T15:24:15.637Z,82.40
2018-09-11T15:26:43.909Z,82.60
2018-09-11T15:29:12.647Z,83.40
2018-09-11T15:31:41.289Z,82.90
2018-09-11T15:34:10.137Z,83.50
2018-09-11T15:36:38.820Z,83.40
2018-09-11T15:39:07.552Z,83.40
2018-09-11T15:41:36.125Z,83.90
2018-09-11T15:44:04.784Z,83.20
2018-09-11T15:46:33.309Z,83.40
2018-09-11T15:49:02.008Z,83.80
2018-09-11T15:51:30.931Z,84.00
2018-09-11T15:53:59.816Z,84.00
2018-09-11T15:56:28.565Z,84.30
2018-09-11T15:58:57.349Z,83.80
2018-09-11T16:01:25.868Z,83.80
2018-09-11T16:03:55.691Z,84.00
2018-09-11T16:06:24.463Z,84.30
2018-09-11T16:08:53.333Z,84.50
2018-09-11T16:11:22.084Z,84.30
2018-09-11T16:13:50.700Z,84.50
2018-09-11T16:16:19.516Z,84.30
2018-09-11T16:18:48.236Z,84.30
2018-09-11T16:21:17.216Z,84.30
2018-09-11T16:23:46.953Z,84.50
2018-09-11T16:26:15.956Z,84.50
2018-09-11T16:28:45.046Z,84.60
2018-09-11T16:31:13.388Z,84.90
2018-09-11T16:33:42.233Z,85.00
2018-09-11T16:36:10.705Z,85.00
2018-09-11T16:38:39.404Z,85.00
2018-09-11T16:41:08.341Z,85.10
2018-09-11T16:43:37.156Z,85.30
2018-09-11T16:46:05.752Z,85.10
2018-09-11T16:48:34.474Z,85.10
2018-09-11T16:51:03.130Z,85.10
2018-09-11T16:53:31.847Z,85.30
2018-09-11T16:56:00.742Z,85.40
2018-09-11T16:58:28.974Z,85.10
2018-09-11T17:00:57.709Z,85.10
2018-09-11T17:03:26.560Z,85.60
2018-09-11T17:05:55.258Z,85.50
2018-09-11T17:08:24.080Z,85.70
2018-09-11T17:10:54.062Z,86.00
2018-09-11T17:13:23.499Z,86.00
2018-09-11T17:15:55.064Z,86.10
2018-09-11T17:18:26.976Z,86.20
2018-09-11T17:20:55.822Z,86.30
2018-09-11T17:23:25.412Z,86.70
2018-09-11T17:25:54.296Z,86.90
2018-09-11T17:28:23.035Z,87.00
2018-09-11T17:30:52.593Z,86.70
2018-09-11T17:33:21.408Z,87.40
2018-09-11T17:42:49.707Z,87.20
2018-09-11T17:45:19.396Z,88.70
2018-09-11T17:47:47.873Z,88.50
2018-09-11T17:50:16.630Z,88.40
2018-09-11T17:52:45.281Z,88.30
2018-09-11T17:55:19.773Z,88.80
2018-09-11T17:57:48.864Z,88.30
2018-09-11T18:00:17.618Z,88.30
2018-09-11T18:02:47.257Z,88.60
2018-09-11T18:05:15.849Z,88.10
2018-09-11T18:07:44.555Z,88.70
2018-09-11T18:10:13.147Z,88.10
2018-09-11T18:12:45.081Z,88.40
2018-09-11T18:15:13.449Z,88.80
2018-09-11T18:17:42.022Z,89.10
2018-09-11T18:20:10.896Z,89.60
2018-09-11T18:22:39.517Z,89.60
2018-09-11T18:25:08.331Z,89.10
2018-09-11T18:27:36.905Z,89.50
2018-09-11T18:30:08.568Z,89.90
2018-09-11T18:32:37.531Z,89.90
2018-09-11T18:35:06.181Z,89.70
2018-09-11T18:37:34.883Z,89.40
2018-09-11T18:40:03.822Z,90.00
2018-09-11T18:42:32.870Z,89.20
2018-09-11T18:45:02.428Z,89.60
2018-09-11T18:47:31.211Z,89.40
2018-09-11T18:50:00.143Z,90.00
2018-09-11T18:52:28.765Z,89.80
2018-09-11T18:54:57.572Z,89.90
2018-09-11T18:57:26.472Z,89.60
2018-09-11T18:59:55.188Z,89.90
2018-09-11T19:02:25.296Z,89.90
2018-09-11T19:04:54.789Z,90.10
2018-09-11T19:07:23.284Z,89.90
2018-09-11T19:09:52.097Z,89.90
2018-09-11T19:12:20.832Z,90.00
2018-09-11T19:14:49.515Z,90.10
2018-09-11T19:17:18.471Z,90.20
2018-09-11T19:19:47.331Z,89.90
2018-09-11T19:22:15.726Z,90.00
2018-09-11T19:24:44.806Z,90.00
2018-09-11T19:27:13.455Z,90.00
2018-09-11T19:29:41.945Z,90.30
2018-09-11T19:32:11.871Z,90.20
2018-09-11T19:34:40.372Z,90.00
2018-09-11T19:37:09.322Z,90.20
2018-09-11T19:39:38.003Z,90.10
2018-09-11T19:42:07.108Z,90.10
2018-09-11T19:44:35.685Z,90.40
2018-09-11T19:47:04.575Z,90.40
2018-09-11T19:49:33.309Z,90.40
2018-09-11T19:54:41.025Z,90.40
2018-09-11T19:57:10.273Z,90.40
2018-09-11T19:59:39.115Z,90.60
2018-09-11T20:04:45.359Z,90.40
2018-09-11T20:07:14.128Z,90.70
2018-09-11T20:09:48.322Z,90.50
2018-09-11T20:12:17.439Z,90.90
2018-09-11T20:14:46.078Z,90.90
2018-09-11T20:17:14.706Z,91.00
2018-09-11T20:22:18.172Z,91.00
2018-09-11T20:24:46.975Z,91.00
2018-09-11T20:29:52.572Z,91.10
2018-09-11T20:32:24.233Z,91.30
2018-09-11T20:34:52.815Z,91.20
2018-09-11T20:37:21.965Z,91.00
2018-09-11T20:39:50.484Z,91.10
2018-09-11T20:42:19.475Z,91.20
2018-09-11T20:44:47.964Z,91.30
2018-09-11T20:47:16.853Z,91.40
2018-09-11T20:49:45.539Z,91.20
2018-09-11T20:52:14.327Z,90.70
2018-09-11T20:54:43.114Z,90.00
2018-09-11T20:57:11.849Z,90.00
2018-09-11T20:59:40.739Z,89.90
2018-09-11T21:02:09.425Z,90.00
2018-09-11T21:04:37.900Z,89.80
2018-09-11T21:07:06.794Z,89.80
2018-09-11T21:09:35.685Z,90.00
2018-09-11T21:12:04.424Z,89.80
2018-09-11T21:14:33.097Z,90.20
2018-09-11T21:17:01.692Z,90.00
2018-09-11T21:19:30.432Z,90.10
2018-09-11T21:21:59.064Z,90.10
2018-09-11T21:24:27.851Z,90.10
2018-09-11T21:26:56.528Z,90.20
2018-09-11T21:29:25.317Z,90.10
2018-09-11T21:31:54.398Z,90.20
2018-09-11T21:34:24.231Z,90.20
2018-09-11T21:36:52.764Z,90.50
2018-09-11T21:39:21.346Z,90.20
2018-09-11T21:41:50.186Z,90.00
2018-09-11T21:44:19.996Z,90.30
2018-09-11T21:46:48.785Z,90.60
2018-09-11T21:49:17.369Z,90.50
2018-09-11T21:51:46.433Z,90.50
2018-09-11T21:54:15.097Z,90.30
2018-09-11T21:56:44.189Z,90.30
2018-09-11T21:59:12.879Z,91.00
2018-09-11T22:01:48.691Z,91.00
2018-09-11T22:04:17.684Z,90.80
2018-09-11T22:06:47.223Z,90.30
2018-09-11T22:09:16.528Z,90.60
2018-09-11T22:11:45.308Z,90.40
2018-09-11T22:14:13.837Z,90.40
2018-09-11T22:16:42.737Z,90.60
2018-09-11T22:19:11.573Z,90.60
2018-09-11T22:21:40.289Z,90.60
2018-09-11T22:24:09.206Z,91.30
2018-09-11T22:26:37.765Z,90.60
2018-09-11T22:29:06.312Z,90.60
2018-09-11T22:31:35.119Z,90.60
2018-09-11T22:34:04.230Z,91.10
2018-09-11T22:36:33.597Z,90.50
2018-09-11T22:39:02.524Z,90.10
2018-09-11T22:41:31.296Z,90.40
2018-09-11T22:43:59.960Z,90.20
2018-09-11T22:46:30.064Z,90.30
2018-09-11T22:48:58.663Z,90.20
2018-09-11T22:51:27.144Z,90.30
2018-09-11T22:53:55.868Z,90.70
2018-09-11T22:56:24.410Z,90.30
2018-09-11T22:58:53.244Z,90.30
2018-09-11T23:01:21.882Z,90.10
2018-09-11T23:03:50.407Z,90.00
2018-09-11T23:06:19.157Z,90.00
2018-09-11T23:08:47.934Z,90.20
2018-09-11T23:11:16.827Z,90.30
2018-09-11T23:13:45.969Z,90.00
2018-09-11T23:16:15.576Z,90.10
2018-09-11T23:18:44.775Z,89.40
2018-09-11T23:21:14.294Z,90.10
2018-09-11T23:23:43.634Z,89.70
2018-09-11T23:26:13.313Z,90.00
2018-09-11T23:28:42.181Z,90.20
2018-09-11T23:31:11.481Z,90.20
2018-09-11T23:33:40.577Z,90.10
2018-09-11T23:36:10.082Z,90.50
2018-09-11T23:38:39.587Z,90.20
2018-09-11T23:41:08.375Z,90.20
2018-09-11T23:43:37.500Z,90.10
2018-09-11T23:46:07.085Z,90.00
2018-09-11T23:48:39.552Z,90.00
2018-09-11T23:51:08.362Z,90.00
2018-09-11T23:53:37.435Z,90.30
2018-09-11T23:56:06.430Z,90.50
2018-09-11T23:58:35.012Z,90.40
